Terminal Aerodrome Forecast
Issued by NWS

Home | Current Version | Previous Version | Text Only | Print | Product List | Glossary On
Versions: 1 2 3 4 5 6 7 8 9 10 11 12 13
000
FTUS44 KBMX 011100 RRA
TAFEET
TAF
KEET 011140Z 0112/0212 12005KT P6SM OVC150
     FM011600 17008KT 6SM -RA BR OVC035
     FM011800 17008G15KT 2SM RA BR OVC008
     FM020500 24009G16KT 5SM -RA BR OVC015
     FM020900 30010G17KT P6SM OVC025=

USA.gov is the U.S. government's official web portal to all federal, state and local government web resources and services.